createdAt,value
2022-09-11T00:01:20.000Z,100249.18
2022-09-11T00:03:52.484Z,100253.61
2022-09-11T00:06:30.561Z,100251.55
2022-09-11T00:09:06.517Z,100244.88
2022-09-11T00:11:41.954Z,100241.80
2022-09-11T00:14:14.125Z,100236.90
2022-09-11T00:16:47.933Z,100240.98
2022-09-11T00:19:22.000Z,100236.73
2022-09-11T00:21:57.442Z,100235.79
2022-09-11T00:24:27.944Z,100228.84
2022-09-11T00:26:59.986Z,100224.94
2022-09-11T00:29:32.591Z,100226.88
2022-09-11T00:32:05.081Z,100231.20
2022-09-11T00:34:37.456Z,100231.67
2022-09-11T00:37:09.815Z,100233.95
2022-09-11T00:39:42.949Z,100235.76
2022-09-11T00:42:16.070Z,100235.70
2022-09-11T00:45:09.935Z,100234.36
2022-09-11T00:47:42.051Z,100222.48
2022-09-11T00:50:19.637Z,100217.14
2022-09-11T00:52:56.065Z,100211.20
2022-09-11T00:55:32.371Z,100209.63
2022-09-11T00:58:08.747Z,100205.07
2022-09-11T01:00:43.534Z,100208.68
2022-09-11T01:03:15.776Z,100213.55
2022-09-11T01:05:48.367Z,100209.17
2022-09-11T01:08:21.292Z,100213.95
2022-09-11T01:11:06.116Z,100216.83
2022-09-11T01:13:43.268Z,100220.02
2022-09-11T01:16:26.247Z,100217.99
2022-09-11T01:19:04.727Z,100216.31
2022-09-11T01:22:22.254Z,100216.79
2022-09-11T01:25:10.779Z,100219.77
2022-09-11T01:27:46.477Z,100218.14
2022-09-11T01:30:21.326Z,100217.91
2022-09-11T01:33:15.631Z,100218.31
2022-09-11T01:36:04.273Z,100215.90
2022-09-11T01:38:39.588Z,100216.47
2022-09-11T01:41:16.992Z,100209.95
2022-09-11T01:43:55.179Z,100209.38
2022-09-11T01:46:29.579Z,100204.92
2022-09-11T01:49:06.734Z,100205.30
2022-09-11T01:51:40.278Z,100205.61
2022-09-11T01:54:17.685Z,100206.33
2022-09-11T01:56:55.632Z,100206.24
2022-09-11T01:59:33.281Z,100207.05
2022-09-11T02:02:09.635Z,100215.73
2022-09-11T02:04:46.217Z,100210.35
2022-09-11T02:07:22.830Z,100210.71
2022-09-11T02:09:59.443Z,100208.36
2022-09-11T02:12:41.087Z,100206.80
2022-09-11T02:15:17.319Z,100207.14
2022-09-11T02:18:00.034Z,100206.34
2022-09-11T02:20:34.491Z,100206.13
2022-09-11T02:23:07.173Z,100204.99
2022-09-11T02:25:40.163Z,100206.73
2022-09-11T02:28:12.539Z,100207.17
2022-09-11T02:30:45.147Z,100204.67
2022-09-11T02:33:32.992Z,100204.00
2022-09-11T02:36:22.355Z,100207.33
2022-09-11T02:39:06.531Z,100211.33
2022-09-11T02:41:47.571Z,100215.91
2022-09-11T02:44:27.659Z,100213.35
2022-09-11T02:47:12.448Z,100215.35
2022-09-11T02:49:59.317Z,100218.48
2022-09-11T02:52:42.178Z,100218.39
2022-09-11T02:55:23.877Z,100217.02
2022-09-11T02:58:02.687Z,100212.12
2022-09-11T03:00:35.376Z,100211.67
2022-09-11T03:03:07.568Z,100210.39
2022-09-11T03:05:40.433Z,100205.42
2022-09-11T03:08:13.269Z,100210.78
2022-09-11T03:10:46.811Z,100205.77
2022-09-11T03:13:19.178Z,100205.52
2022-09-11T03:15:51.251Z,100207.34
2022-09-11T03:18:23.278Z,100213.02
2022-09-11T03:20:55.346Z,100212.56
2022-09-11T03:23:27.463Z,100209.70
2022-09-11T03:25:59.532Z,100218.70
2022-09-11T03:28:32.301Z,100221.30
2022-09-11T03:31:05.199Z,100223.13
2022-09-11T03:33:37.468Z,100228.92
2022-09-11T03:36:10.185Z,100230.66
2022-09-11T03:38:42.383Z,100231.25
2022-09-11T03:41:14.630Z,100237.96
2022-09-11T03:43:46.776Z,100241.21
2022-09-11T03:46:18.835Z,100242.96
2022-09-11T03:48:51.412Z,100240.92
2022-09-11T03:51:26.424Z,100237.21
2022-09-11T03:53:59.786Z,100240.85
2022-09-11T03:56:32.038Z,100246.02
2022-09-11T03:59:04.151Z,100244.15
2022-09-11T04:01:36.711Z,100247.70
2022-09-11T04:04:08.820Z,100248.77
2022-09-11T04:06:40.912Z,100247.40
2022-09-11T04:09:13.074Z,100255.12
2022-09-11T04:11:45.273Z,100256.69
2022-09-11T04:14:17.419Z,100256.92
2022-09-11T04:16:49.507Z,100260.45
2022-09-11T04:19:22.890Z,100264.48
2022-09-11T04:21:55.058Z,100270.25
2022-09-11T04:24:27.162Z,100266.15
2022-09-11T04:27:01.059Z,100264.57
2022-09-11T04:29:34.591Z,100266.73
2022-09-11T04:32:07.607Z,100266.50
2022-09-11T04:34:39.678Z,100272.94
2022-09-11T04:37:11.958Z,100272.09
2022-09-11T04:39:44.085Z,100276.24
2022-09-11T04:42:16.244Z,100274.17
2022-09-11T04:44:48.419Z,100275.75
2022-09-11T04:47:21.107Z,100276.35
2022-09-11T04:49:53.153Z,100274.88
2022-09-11T04:52:25.247Z,100277.74
2022-09-11T04:54:57.355Z,100270.83
2022-09-11T04:57:32.483Z,100271.36
2022-09-11T05:00:05.935Z,100272.34
2022-09-11T05:02:38.139Z,100274.16
2022-09-11T05:05:12.268Z,100273.95
2022-09-11T05:07:44.310Z,100276.23
2022-09-11T05:10:16.490Z,100276.16
2022-09-11T05:12:48.663Z,100273.32
2022-09-11T05:15:20.709Z,100277.55
2022-09-11T05:17:55.554Z,100283.75
2022-09-11T05:20:27.615Z,100283.46
2022-09-11T05:22:59.751Z,100280.95
2022-09-11T05:25:33.618Z,100280.70
2022-09-11T05:28:06.386Z,100288.55
2022-09-11T05:30:38.468Z,100287.13
2022-09-11T05:33:10.517Z,100288.96
2022-09-11T05:35:42.746Z,100288.54
2022-09-11T05:38:14.869Z,100289.15
2022-09-11T05:40:48.663Z,100293.17
2022-09-11T05:43:21.871Z,100291.52
2022-09-11T05:45:59.317Z,100294.00
2022-09-11T05:48:33.531Z,100291.31
2022-09-11T05:51:09.844Z,100290.48
2022-09-11T05:53:42.670Z,100290.76
2022-09-11T05:56:18.109Z,100289.73
2022-09-11T05:58:52.895Z,100288.41
2022-09-11T06:01:27.257Z,100289.70
2022-09-11T06:04:02.340Z,100290.21
2022-09-11T06:06:34.396Z,100291.11
2022-09-11T06:09:06.913Z,100291.89
2022-09-11T06:11:41.735Z,100287.63
2022-09-11T06:14:16.538Z,100287.96
2022-09-11T06:16:49.014Z,100285.20
2022-09-11T06:19:21.088Z,100281.80
2022-09-11T06:21:56.403Z,100287.02
2022-09-11T06:24:30.602Z,100286.23
2022-09-11T06:27:03.962Z,100286.73
2022-09-11T06:29:37.975Z,100283.02
2022-09-11T06:32:12.754Z,100280.59
2022-09-11T06:34:44.811Z,100280.56
2022-09-11T06:37:19.648Z,100281.55
2022-09-11T06:39:51.988Z,100276.88
2022-09-11T06:42:26.056Z,100278.17
2022-09-11T06:44:58.667Z,100276.53
2022-09-11T06:47:31.507Z,100276.83
2022-09-11T06:50:03.571Z,100279.22
2022-09-11T06:52:37.583Z,100282.51
2022-09-11T06:55:14.560Z,100282.55
2022-09-11T06:57:46.648Z,100283.44
2022-09-11T07:00:19.369Z,100282.09
2022-09-11T07:02:53.120Z,100286.04
2022-09-11T07:05:26.082Z,100283.69
2022-09-11T07:07:58.904Z,100289.15
2022-09-11T07:10:31.048Z,100294.54
2022-09-11T07:13:03.119Z,100293.34
2022-09-11T07:15:35.271Z,100294.35
2022-09-11T07:18:08.368Z,100293.23
2022-09-11T07:20:42.586Z,100291.88
2022-09-11T07:23:14.743Z,100294.40
2022-09-11T07:25:46.881Z,100292.48
2022-09-11T07:28:19.710Z,100289.08
2022-09-11T07:30:51.812Z,100286.96
2022-09-11T07:33:23.992Z,100282.05
2022-09-11T07:35:56.070Z,100282.52
2022-09-11T07:38:30.306Z,100281.84
2022-09-11T07:41:02.863Z,100282.32
2022-09-11T07:43:35.269Z,100282.45
2022-09-11T07:46:08.250Z,100279.77
2022-09-11T07:48:41.010Z,100283.52
2022-09-11T07:51:14.971Z,100283.73
2022-09-11T07:53:49.740Z,100284.46
2022-09-11T07:56:24.103Z,100284.98
2022-09-11T07:58:58.373Z,100285.20
2022-09-11T08:01:32.676Z,100286.90
2022-09-11T08:04:07.531Z,100290.38
2022-09-11T08:06:40.634Z,100288.50
2022-09-11T08:09:16.054Z,100296.04
2022-09-11T08:11:49.696Z,100297.83
2022-09-11T08:14:22.586Z,100297.92
2022-09-11T08:16:54.748Z,100298.43
2022-09-11T08:19:27.034Z,100300.46
2022-09-11T08:21:59.122Z,100300.77
2022-09-11T08:24:31.172Z,100293.79
2022-09-11T08:27:05.386Z,100292.80
2022-09-11T08:29:37.653Z,100288.02
2022-09-11T08:32:09.862Z,100284.23
2022-09-11T08:34:42.393Z,100279.56
2022-09-11T08:37:14.761Z,100282.14
2022-09-11T08:39:46.880Z,100277.54
2022-09-11T08:42:20.212Z,100278.35
2022-09-11T08:44:55.756Z,100275.24
2022-09-11T08:47:31.980Z,100277.91
2022-09-11T08:50:09.379Z,100266.95
2022-09-11T08:52:43.218Z,100268.27
2022-09-11T08:55:24.403Z,100266.63
2022-09-11T08:58:03.404Z,100267.02
2022-09-11T09:00:43.232Z,100265.29
2022-09-11T09:03:35.244Z,100260.85
2022-09-11T09:06:24.723Z,100254.27
2022-09-11T09:09:08.708Z,100251.41
2022-09-11T09:11:51.608Z,100246.42
2022-09-11T09:14:45.390Z,100248.39
2022-09-11T09:17:21.235Z,100243.77
2022-09-11T09:20:02.849Z,100246.39
2022-09-11T09:22:46.783Z,100244.90
2022-09-11T09:25:23.779Z,100239.08
2022-09-11T09:28:03.290Z,100235.16
2022-09-11T09:30:47.803Z,100229.73
2022-09-11T09:33:28.615Z,100232.22
2022-09-11T09:36:13.314Z,100235.45
2022-09-11T09:38:46.612Z,100237.91
2022-09-11T09:41:44.041Z,100240.01
2022-09-11T09:44:25.556Z,100233.14
2022-09-11T09:46:59.578Z,100228.27
2022-09-11T09:49:34.668Z,100231.26
2022-09-11T09:52:21.147Z,100227.17
2022-09-11T09:55:00.194Z,100225.45
2022-09-11T09:57:35.653Z,100221.39
2022-09-11T10:00:15.955Z,100216.05
2022-09-11T10:02:55.216Z,100218.36
2022-09-11T10:05:30.721Z,100217.34
2022-09-11T10:08:06.634Z,100214.52
2022-09-11T10:10:41.015Z,100215.39
2022-09-11T10:13:25.547Z,100215.45
2022-09-11T10:16:00.695Z,100220.03
2022-09-11T10:18:45.417Z,100216.31
2022-09-11T10:21:29.793Z,100213.95
2022-09-11T10:24:04.671Z,100209.13
2022-09-11T10:26:43.360Z,100211.04
2022-09-11T10:29:19.230Z,100210.39
2022-09-11T10:31:55.268Z,100204.25
2022-09-11T10:34:29.340Z,100203.92
2022-09-11T10:37:04.472Z,100198.50
2022-09-11T10:39:39.784Z,100198.97
2022-09-11T10:42:18.079Z,100191.20
2022-09-11T10:44:51.732Z,100190.80
2022-09-11T10:47:29.061Z,100190.11
2022-09-11T10:50:22.511Z,100189.36
2022-09-11T10:53:08.785Z,100192.94
2022-09-11T10:55:45.000Z,100184.84
2022-09-11T10:58:20.494Z,100181.60
2022-09-11T11:00:53.459Z,100186.09
2022-09-11T11:03:28.923Z,100178.02
2022-09-11T11:06:11.623Z,100178.31
2022-09-11T11:09:07.267Z,100172.61
2022-09-11T11:11:56.197Z,100164.02
2022-09-11T11:14:49.014Z,100163.85
2022-09-11T11:17:32.424Z,100154.19
2022-09-11T11:20:18.042Z,100153.89
2022-09-11T11:23:19.167Z,100150.84
2022-09-11T11:26:02.461Z,100145.21
2022-09-11T11:29:03.408Z,100143.96
2022-09-11T11:31:47.647Z,100145.60
2022-09-11T11:34:32.721Z,100141.17
2022-09-11T11:37:13.496Z,100139.05
2022-09-11T11:39:53.887Z,100133.86
2022-09-11T11:42:29.202Z,100133.85
2022-09-11T11:45:05.599Z,100128.38
2022-09-11T11:47:43.370Z,100127.31
2022-09-11T11:50:23.616Z,100123.49
2022-09-11T11:53:07.417Z,100116.02
2022-09-11T11:55:50.040Z,100115.68
2022-09-11T11:58:47.707Z,100121.55
2022-09-11T12:01:37.342Z,100108.08
2022-09-11T12:04:24.475Z,100116.44
2022-09-11T12:06:56.665Z,100112.46
2022-09-11T12:09:33.921Z,100110.98
2022-09-11T12:12:10.208Z,100111.40
2022-09-11T12:14:52.550Z,100107.77
2022-09-11T12:17:29.745Z,100111.14
2022-09-11T12:20:32.243Z,100106.33
2022-09-11T12:23:05.815Z,100105.95
2022-09-11T12:26:05.851Z,100106.25
2022-09-11T12:28:38.286Z,100100.85
2022-09-11T12:31:12.470Z,100099.31
2022-09-11T12:33:57.855Z,100094.10
2022-09-11T12:36:37.123Z,100092.25
2022-09-11T12:39:26.127Z,100094.84
2022-09-11T12:42:35.587Z,100093.25
2022-09-11T12:45:36.275Z,100086.52
2022-09-11T12:48:12.822Z,100083.16
2022-09-11T12:50:54.236Z,100081.96
2022-09-11T12:53:29.373Z,100079.67
2022-09-11T12:56:05.479Z,100074.17
2022-09-11T12:58:41.858Z,100073.43
2022-09-11T13:01:22.659Z,100067.50
2022-09-11T13:04:03.354Z,100070.39
2022-09-11T13:06:44.751Z,100067.57
2022-09-11T13:09:23.959Z,100069.81
2022-09-11T13:11:57.964Z,100072.98
2022-09-11T13:14:49.221Z,100071.67
2022-09-11T13:17:30.556Z,100068.52
2022-09-11T13:20:25.771Z,100065.45
2022-09-11T13:23:11.902Z,100064.09
2022-09-11T13:25:45.139Z,100063.36
2022-09-11T13:28:23.245Z,100062.38
2022-09-11T13:31:04.976Z,100061.67
2022-09-11T13:33:37.284Z,100069.80
2022-09-11T13:36:16.760Z,100062.98
2022-09-11T13:38:54.559Z,100066.80
2022-09-11T13:41:30.956Z,100071.16
2022-09-11T13:44:04.923Z,100064.90
2022-09-11T13:46:37.001Z,100061.83
2022-09-11T13:49:33.675Z,100060.84
2022-09-11T13:52:07.979Z,100049.36
2022-09-11T13:54:45.868Z,100048.92
2022-09-11T13:57:20.904Z,100049.29
2022-09-11T13:59:56.956Z,100045.42
2022-09-11T14:02:49.825Z,100043.61
2022-09-11T14:05:26.136Z,100036.62
2022-09-11T14:08:07.372Z,100040.39
2022-09-11T14:10:50.010Z,100040.05
2022-09-11T14:13:27.748Z,100034.50
2022-09-11T14:16:04.463Z,100033.23
2022-09-11T14:18:42.063Z,100030.40
2022-09-11T14:21:18.277Z,100025.00
2022-09-11T14:23:56.632Z,100020.41
2022-09-11T14:26:42.923Z,100023.69
2022-09-11T14:29:29.520Z,100017.83
2022-09-11T14:32:31.222Z,100015.04
2022-09-11T14:35:06.674Z,100012.27
2022-09-11T14:37:45.937Z,100008.39
2022-09-11T14:40:20.516Z,99997.98
2022-09-11T14:42:52.671Z,99997.23
2022-09-11T14:45:26.595Z,99995.48
2022-09-11T14:47:58.763Z,99992.36
2022-09-11T14:50:31.031Z,99992.36
2022-09-11T14:53:03.234Z,99991.20
2022-09-11T14:55:36.223Z,99991.05
2022-09-11T14:58:08.867Z,99997.36
2022-09-11T15:00:41.176Z,99995.85
2022-09-11T15:03:13.331Z,99999.96
2022-09-11T15:05:47.568Z,100001.77
2022-09-11T15:08:19.991Z,100003.38
2022-09-11T15:10:53.763Z,100003.23
2022-09-11T15:13:25.977Z,100005.40
2022-09-11T15:15:58.197Z,100002.02
2022-09-11T15:18:30.472Z,100000.10
2022-09-11T15:21:02.651Z,99997.02
2022-09-11T15:23:34.861Z,99993.84
2022-09-11T15:26:08.554Z,99995.28
2022-09-11T15:28:40.652Z,99997.20
2022-09-11T15:31:12.723Z,99997.77
2022-09-11T15:33:47.718Z,99999.60
2022-09-11T15:36:20.452Z,100004.17
2022-09-11T15:38:56.005Z,99997.44
2022-09-11T15:41:28.163Z,100002.21
2022-09-11T15:44:00.352Z,100007.83
2022-09-11T15:46:35.415Z,100011.41
2022-09-11T15:49:07.969Z,100008.88
2022-09-11T15:51:41.199Z,100016.96
2022-09-11T15:54:15.707Z,100020.27
2022-09-11T15:56:48.032Z,100028.73
2022-09-11T15:59:20.616Z,100033.47
2022-09-11T16:01:52.853Z,100035.83
2022-09-11T16:04:29.143Z,100036.45
2022-09-11T16:07:01.828Z,100039.02
2022-09-11T16:09:34.828Z,100045.30
2022-09-11T16:12:07.714Z,100043.10
2022-09-11T16:14:40.316Z,100040.89
2022-09-11T16:17:16.903Z,100040.06
2022-09-11T16:19:48.962Z,100044.53
2022-09-11T16:22:21.083Z,100052.70
2022-09-11T16:24:53.541Z,100053.31
2022-09-11T16:27:25.992Z,100048.89
2022-09-11T16:32:50.751Z,100043.42
2022-09-11T16:35:23.992Z,100046.44
2022-09-11T16:37:56.620Z,100046.66
2022-09-11T16:40:28.696Z,100050.31
2022-09-11T16:43:00.819Z,100050.39
2022-09-11T16:45:33.102Z,100049.80
2022-09-11T16:48:06.366Z,100046.85
2022-09-11T16:50:39.028Z,100045.33
2022-09-11T16:53:12.235Z,100045.86
2022-09-11T16:55:44.255Z,100057.21
2022-09-11T16:58:16.443Z,100062.76
2022-09-11T17:00:48.598Z,100069.05
2022-09-11T17:03:20.742Z,100070.92
2022-09-11T17:05:56.307Z,100072.64
2022-09-11T17:08:30.367Z,100073.74
2022-09-11T17:11:04.780Z,100081.27
2022-09-11T17:13:37.408Z,100084.52
2022-09-11T17:16:16.126Z,100083.23
2022-09-11T17:18:50.123Z,100083.79
2022-09-11T17:21:24.188Z,100077.20
2022-09-11T17:23:58.971Z,100078.45
2022-09-11T17:26:32.120Z,100080.86
2022-09-11T17:29:05.669Z,100082.36
2022-09-11T17:31:37.772Z,100084.02
2022-09-11T17:34:09.935Z,100089.68
2022-09-11T17:36:43.345Z,100099.08
2022-09-11T17:39:15.539Z,100108.63
2022-09-11T17:41:47.607Z,100108.91
2022-09-11T17:44:19.733Z,100103.21
2022-09-11T17:46:52.623Z,100100.98
2022-09-11T17:49:24.679Z,100101.75
2022-09-11T17:51:58.389Z,100106.13
2022-09-11T17:54:30.587Z,100108.52
2022-09-11T17:57:02.636Z,100114.83
2022-09-11T17:59:36.836Z,100116.80
2022-09-11T18:02:09.175Z,100119.42
2022-09-11T18:04:41.271Z,100121.81
2022-09-11T18:07:13.571Z,100125.16
2022-09-11T18:09:45.888Z,100126.83
2022-09-11T18:12:18.055Z,100128.87
2022-09-11T18:14:50.173Z,100130.65
2022-09-11T18:17:22.736Z,100128.98
2022-09-11T18:19:54.841Z,100126.61
2022-09-11T18:22:29.753Z,100122.99
2022-09-11T18:25:02.043Z,100122.44
2022-09-11T18:27:34.192Z,100123.45
2022-09-11T18:30:07.427Z,100126.80
2022-09-11T18:32:44.498Z,100125.27
2022-09-11T18:35:18.966Z,100126.91
2022-09-11T18:37:52.915Z,100130.98
2022-09-11T18:40:25.010Z,100133.63
2022-09-11T18:42:57.160Z,100135.60
2022-09-11T18:45:30.721Z,100133.52
2022-09-11T18:48:02.954Z,100131.17
2022-09-11T18:50:37.187Z,100128.36
2022-09-11T18:53:09.670Z,100129.66
2022-09-11T18:55:41.795Z,100132.70
2022-09-11T18:58:14.195Z,100139.11
2022-09-11T19:00:46.893Z,100139.30
2022-09-11T19:03:21.333Z,100137.41
2022-09-11T19:05:53.823Z,100138.45
2022-09-11T19:08:26.379Z,100140.93
2022-09-11T19:11:00.206Z,100144.42
2022-09-11T19:13:32.494Z,100147.67
2022-09-11T19:16:06.060Z,100147.85
2022-09-11T19:18:39.622Z,100142.48
2022-09-11T19:21:13.922Z,100150.40
2022-09-11T19:23:48.063Z,100144.65
2022-09-11T19:26:23.170Z,100145.79
2022-09-11T19:28:55.939Z,100143.80
2022-09-11T19:31:30.452Z,100134.38
2022-09-11T19:34:03.307Z,100135.73
2022-09-11T19:36:36.836Z,100133.98
2022-09-11T19:39:09.019Z,100130.20
2022-09-11T19:41:41.844Z,100123.05
2022-09-11T19:44:15.067Z,100116.55
2022-09-11T19:46:49.155Z,100111.67
2022-09-11T19:49:21.397Z,100115.84
2022-09-11T19:51:54.663Z,100124.60
2022-09-11T19:54:27.002Z,100125.31
2022-09-11T19:57:00.291Z,100128.99
2022-09-11T19:59:32.864Z,100133.77
2022-09-11T20:02:05.129Z,100133.96
2022-09-11T20:04:37.258Z,100128.45
2022-09-11T20:07:09.398Z,100123.09
2022-09-11T20:09:42.965Z,100125.13
2022-09-11T20:12:15.047Z,100126.83
2022-09-11T20:14:47.118Z,100133.91
2022-09-11T20:17:19.167Z,100138.27
2022-09-11T20:19:51.215Z,100139.94
2022-09-11T20:22:24.806Z,100135.73
2022-09-11T20:24:56.853Z,100134.12
2022-09-11T20:27:28.894Z,100137.91
2022-09-11T20:30:00.980Z,100145.00
2022-09-11T20:32:33.417Z,100146.11
2022-09-11T20:35:06.860Z,100145.80
2022-09-11T20:37:39.352Z,100155.66
2022-09-11T20:40:13.540Z,100164.73
2022-09-11T20:42:45.909Z,100167.70
2022-09-11T20:45:18.186Z,100176.01
2022-09-11T20:47:50.316Z,100175.67
2022-09-11T20:50:22.659Z,100174.15
2022-09-11T20:52:54.751Z,100177.66
2022-09-11T20:55:26.819Z,100178.61
2022-09-11T20:58:00.536Z,100174.54
2022-09-11T21:00:32.937Z,100175.89
2022-09-11T21:03:05.139Z,100167.89
2022-09-11T21:05:38.059Z,100164.52
2022-09-11T21:08:10.321Z,100160.80
2022-09-11T21:10:42.444Z,100155.98
2022-09-11T21:13:14.837Z,100149.79
2022-09-11T21:15:48.628Z,100141.40
2022-09-11T21:18:21.115Z,100140.45
2022-09-11T21:20:58.077Z,100144.16
2022-09-11T21:23:30.728Z,100140.41
2022-09-11T21:26:02.967Z,100142.93
2022-09-11T21:28:35.343Z,100137.20
2022-09-11T21:31:08.597Z,100138.23
2022-09-11T21:33:41.732Z,100132.45
2022-09-11T21:36:13.999Z,100141.70
2022-09-11T21:38:46.038Z,100137.06
2022-09-11T21:41:18.211Z,100135.96
2022-09-11T21:43:50.277Z,100140.86
2022-09-11T21:46:22.723Z,100136.45
2022-09-11T21:48:54.880Z,100145.21
2022-09-11T21:51:27.083Z,100141.31
2022-09-11T21:54:01.938Z,100136.31
2022-09-11T21:56:35.272Z,100133.80
2022-09-11T21:59:07.374Z,100124.08
2022-09-11T22:01:39.741Z,100122.11
2022-09-11T22:04:11.849Z,100125.16
2022-09-11T22:06:43.881Z,100128.83
2022-09-11T22:09:20.432Z,100135.65
2022-09-11T22:11:54.816Z,100138.98
2022-09-11T22:14:30.121Z,100133.31
2022-09-11T22:17:02.177Z,100135.14
2022-09-11T22:19:34.735Z,100134.77
2022-09-11T22:22:06.910Z,100136.31
2022-09-11T22:24:39.221Z,100139.60
2022-09-11T22:27:12.552Z,100140.21
2022-09-11T22:29:47.014Z,100135.45
2022-09-11T22:32:19.243Z,100135.04
2022-09-11T22:34:51.292Z,100140.38
2022-09-11T22:37:23.793Z,100140.77
2022-09-11T22:39:55.874Z,100141.36
2022-09-11T22:42:27.984Z,100137.19
2022-09-11T22:45:00.042Z,100137.80
2022-09-11T22:47:32.383Z,100133.91
2022-09-11T22:50:05.103Z,100128.91
2022-09-11T22:52:37.845Z,100136.70
2022-09-11T22:55:11.923Z,100137.59
2022-09-11T22:57:44.073Z,100139.73
2022-09-11T23:00:19.155Z,100135.22
2022-09-11T23:02:51.270Z,100132.44
2022-09-11T23:05:40.715Z,100136.98
2022-09-11T23:08:12.772Z,100135.16
2022-09-11T23:10:46.294Z,100133.48
2022-09-11T23:13:18.349Z,100134.63
2022-09-11T23:15:50.421Z,100132.67
2022-09-11T23:18:22.843Z,100126.71
2022-09-11T23:20:57.231Z,100125.15
2022-09-11T23:23:29.340Z,100122.77
2022-09-11T23:26:01.407Z,100118.35
2022-09-11T23:28:34.470Z,100119.54
2022-09-11T23:31:10.974Z,100120.45
2022-09-11T23:33:43.821Z,100122.48
2022-09-11T23:36:17.101Z,100121.52
2022-09-11T23:38:50.685Z,100119.77
2022-09-11T23:41:24.330Z,100115.66
2022-09-11T23:43:56.839Z,100111.02
2022-09-11T23:46:29.250Z,100114.02
2022-09-11T23:49:01.624Z,100109.14
2022-09-11T23:51:33.688Z,100110.91
2022-09-11T23:54:05.860Z,100108.23
2022-09-11T23:56:38.130Z,100105.09
2022-09-11T23:59:10.189Z,100107.84
